sensor_id;sensor_type;location;lat;lon;timestamp;P1;durP1;ratioP1;P2;durP2;ratioP2
20110;SDS011;10216;42.658;23.248;2022-08-19T00:01:33;7.00;;;4.90;;
20110;SDS011;10216;42.658;23.248;2022-08-19T00:04:02;5.27;;;4.73;;
20110;SDS011;10216;42.658;23.248;2022-08-19T00:06:29;5.40;;;4.90;;
20110;SDS011;10216;42.658;23.248;2022-08-19T00:08:55;5.53;;;5.03;;
20110;SDS011;10216;42.658;23.248;2022-08-19T00:11:23;6.53;;;5.90;;
20110;SDS011;10216;42.658;23.248;2022-08-19T00:13:49;5.50;;;5.00;;
20110;SDS011;10216;42.658;23.248;2022-08-19T00:16:15;5.43;;;5.03;;
20110;SDS011;10216;42.658;23.248;2022-08-19T00:18:45;5.23;;;4.83;;
20110;SDS011;10216;42.658;23.248;2022-08-19T00:21:12;5.90;;;5.40;;
20110;SDS011;10216;42.658;23.248;2022-08-19T00:23:37;5.07;;;4.63;;
20110;SDS011;10216;42.658;23.248;2022-08-19T00:26:03;5.30;;;4.90;;
20110;SDS011;10216;42.658;23.248;2022-08-19T00:28:29;5.00;;;4.50;;
20110;SDS011;10216;42.658;23.248;2022-08-19T00:30:55;4.60;;;4.20;;
20110;SDS011;10216;42.658;23.248;2022-08-19T00:33:21;6.93;;;5.03;;
20110;SDS011;10216;42.658;23.248;2022-08-19T00:35:46;4.63;;;4.07;;
20110;SDS011;10216;42.658;23.248;2022-08-19T00:38:12;6.03;;;4.30;;
20110;SDS011;10216;42.658;23.248;2022-08-19T00:40:37;5.27;;;4.83;;
20110;SDS011;10216;42.658;23.248;2022-08-19T00:43:07;5.80;;;5.27;;
20110;SDS011;10216;42.658;23.248;2022-08-19T00:45:34;5.40;;;4.90;;
20110;SDS011;10216;42.658;23.248;2022-08-19T00:48:00;4.97;;;4.57;;
20110;SDS011;10216;42.658;23.248;2022-08-19T00:50:29;5.20;;;4.60;;
20110;SDS011;10216;42.658;23.248;2022-08-19T00:52:55;6.33;;;4.47;;
20110;SDS011;10216;42.658;23.248;2022-08-19T00:55:22;4.87;;;4.47;;
20110;SDS011;10216;42.658;23.248;2022-08-19T00:57:54;4.90;;;4.40;;
20110;SDS011;10216;42.658;23.248;2022-08-19T01:00:26;5.50;;;4.80;;
20110;SDS011;10216;42.658;23.248;2022-08-19T01:02:53;5.60;;;4.57;;
20110;SDS011;10216;42.658;23.248;2022-08-19T01:05:21;5.70;;;5.20;;
20110;SDS011;10216;42.658;23.248;2022-08-19T01:07:49;5.53;;;4.73;;
20110;SDS011;10216;42.658;23.248;2022-08-19T01:10:17;5.03;;;4.60;;
20110;SDS011;10216;42.658;23.248;2022-08-19T01:12:46;5.43;;;4.97;;
20110;SDS011;10216;42.658;23.248;2022-08-19T01:15:14;5.00;;;4.60;;
20110;SDS011;10216;42.658;23.248;2022-08-19T01:17:43;5.13;;;4.43;;
20110;SDS011;10216;42.658;23.248;2022-08-19T01:20:11;5.37;;;4.87;;
20110;SDS011;10216;42.658;23.248;2022-08-19T01:22:48;8.30;;;5.10;;
20110;SDS011;10216;42.658;23.248;2022-08-19T01:25:18;4.47;;;4.07;;
20110;SDS011;10216;42.658;23.248;2022-08-19T01:27:49;5.20;;;4.70;;
20110;SDS011;10216;42.658;23.248;2022-08-19T01:30:16;6.00;;;4.60;;
20110;SDS011;10216;42.658;23.248;2022-08-19T01:32:44;5.00;;;4.60;;
20110;SDS011;10216;42.658;23.248;2022-08-19T01:35:12;5.13;;;4.63;;
20110;SDS011;10216;42.658;23.248;2022-08-19T01:37:58;5.43;;;5.03;;
20110;SDS011;10216;42.658;23.248;2022-08-19T01:40:27;5.00;;;4.57;;
20110;SDS011;10216;42.658;23.248;2022-08-19T01:42:56;5.33;;;4.77;;
20110;SDS011;10216;42.658;23.248;2022-08-19T01:45:24;5.53;;;5.03;;
20110;SDS011;10216;42.658;23.248;2022-08-19T01:47:51;5.20;;;4.73;;
20110;SDS011;10216;42.658;23.248;2022-08-19T01:50:18;5.97;;;5.00;;
20110;SDS011;10216;42.658;23.248;2022-08-19T01:52:43;8.20;;;5.30;;
20110;SDS011;10216;42.658;23.248;2022-08-19T01:55:14;12.37;;;6.17;;
20110;SDS011;10216;42.658;23.248;2022-08-19T01:57:43;5.77;;;4.70;;
20110;SDS011;10216;42.658;23.248;2022-08-19T02:00:12;5.83;;;4.83;;
20110;SDS011;10216;42.658;23.248;2022-08-19T02:02:40;5.53;;;5.00;;
20110;SDS011;10216;42.658;23.248;2022-08-19T02:05:06;5.30;;;4.77;;
20110;SDS011;10216;42.658;23.248;2022-08-19T02:07:33;5.73;;;5.10;;
20110;SDS011;10216;42.658;23.248;2022-08-19T02:10:00;5.50;;;5.10;;
20110;SDS011;10216;42.658;23.248;2022-08-19T02:12:28;5.67;;;5.17;;
20110;SDS011;10216;42.658;23.248;2022-08-19T02:14:53;5.87;;;5.27;;
20110;SDS011;10216;42.658;23.248;2022-08-19T02:17:19;7.30;;;5.67;;
20110;SDS011;10216;42.658;23.248;2022-08-19T02:19:45;5.53;;;5.13;;
20110;SDS011;10216;42.658;23.248;2022-08-19T02:22:10;6.30;;;5.67;;
20110;SDS011;10216;42.658;23.248;2022-08-19T02:24:38;6.17;;;5.47;;
20110;SDS011;10216;42.658;23.248;2022-08-19T02:27:04;6.47;;;5.37;;
20110;SDS011;10216;42.658;23.248;2022-08-19T02:29:30;7.97;;;4.80;;
20110;SDS011;10216;42.658;23.248;2022-08-19T02:31:58;6.10;;;5.47;;
20110;SDS011;10216;42.658;23.248;2022-08-19T02:34:24;7.80;;;5.07;;
20110;SDS011;10216;42.658;23.248;2022-08-19T02:36:50;5.10;;;4.70;;
20110;SDS011;10216;42.658;23.248;2022-08-19T02:39:16;6.80;;;5.07;;
20110;SDS011;10216;42.658;23.248;2022-08-19T02:41:41;5.43;;;5.03;;
20110;SDS011;10216;42.658;23.248;2022-08-19T02:44:07;6.57;;;5.30;;
20110;SDS011;10216;42.658;23.248;2022-08-19T02:46:32;4.70;;;4.30;;
20110;SDS011;10216;42.658;23.248;2022-08-19T02:49:03;5.80;;;5.23;;
20110;SDS011;10216;42.658;23.248;2022-08-19T02:51:32;5.40;;;4.90;;
20110;SDS011;10216;42.658;23.248;2022-08-19T02:53:59;6.20;;;4.97;;
20110;SDS011;10216;42.658;23.248;2022-08-19T02:56:26;5.40;;;4.90;;
20110;SDS011;10216;42.658;23.248;2022-08-19T02:58:52;5.03;;;4.63;;
20110;SDS011;10216;42.658;23.248;2022-08-19T03:01:20;5.40;;;4.90;;
20110;SDS011;10216;42.658;23.248;2022-08-19T03:03:50;6.57;;;5.00;;
20110;SDS011;10216;42.658;23.248;2022-08-19T03:06:16;8.57;;;5.40;;
20110;SDS011;10216;42.658;23.248;2022-08-19T03:08:43;5.53;;;5.00;;
20110;SDS011;10216;42.658;23.248;2022-08-19T03:11:17;5.63;;;5.13;;
20110;SDS011;10216;42.658;23.248;2022-08-19T03:13:47;6.17;;;5.50;;
20110;SDS011;10216;42.658;23.248;2022-08-19T03:16:16;6.07;;;5.57;;
20110;SDS011;10216;42.658;23.248;2022-08-19T03:18:46;6.50;;;5.97;;
20110;SDS011;10216;42.658;23.248;2022-08-19T03:21:18;6.57;;;5.97;;
20110;SDS011;10216;42.658;23.248;2022-08-19T03:23:46;6.20;;;5.60;;
20110;SDS011;10216;42.658;23.248;2022-08-19T03:26:13;8.17;;;5.90;;
20110;SDS011;10216;42.658;23.248;2022-08-19T03:28:40;7.17;;;5.73;;
20110;SDS011;10216;42.658;23.248;2022-08-19T03:31:07;6.30;;;5.70;;
20110;SDS011;10216;42.658;23.248;2022-08-19T03:33:36;6.53;;;5.90;;
20110;SDS011;10216;42.658;23.248;2022-08-19T03:36:09;5.87;;;5.37;;
20110;SDS011;10216;42.658;23.248;2022-08-19T03:38:38;6.03;;;5.53;;
20110;SDS011;10216;42.658;23.248;2022-08-19T03:41:09;6.43;;;5.73;;
20110;SDS011;10216;42.658;23.248;2022-08-19T03:43:40;6.50;;;6.00;;
20110;SDS011;10216;42.658;23.248;2022-08-19T03:46:08;6.60;;;6.00;;
20110;SDS011;10216;42.658;23.248;2022-08-19T03:48:37;7.10;;;6.30;;
20110;SDS011;10216;42.658;23.248;2022-08-19T03:51:05;9.40;;;6.47;;
20110;SDS011;10216;42.658;23.248;2022-08-19T03:53:32;6.47;;;5.87;;
20110;SDS011;10216;42.658;23.248;2022-08-19T03:55:59;6.67;;;6.07;;
20110;SDS011;10216;42.658;23.248;2022-08-19T03:58:25;6.60;;;6.00;;
20110;SDS011;10216;42.658;23.248;2022-08-19T04:00:53;6.07;;;5.47;;
20110;SDS011;10216;42.658;23.248;2022-08-19T04:03:20;6.80;;;6.00;;
20110;SDS011;10216;42.658;23.248;2022-08-19T04:05:46;8.47;;;6.40;;
20110;SDS011;10216;42.658;23.248;2022-08-19T04:08:12;7.07;;;6.47;;
20110;SDS011;10216;42.658;23.248;2022-08-19T04:10:40;7.00;;;6.40;;
20110;SDS011;10216;42.658;23.248;2022-08-19T04:13:07;7.40;;;6.70;;
20110;SDS011;10216;42.658;23.248;2022-08-19T04:15:33;9.17;;;6.73;;
20110;SDS011;10216;42.658;23.248;2022-08-19T04:18:06;6.97;;;6.33;;
20110;SDS011;10216;42.658;23.248;2022-08-19T04:20:33;7.13;;;6.53;;
20110;SDS011;10216;42.658;23.248;2022-08-19T04:23:07;7.67;;;6.97;;
20110;SDS011;10216;42.658;23.248;2022-08-19T04:25:37;9.00;;;8.00;;
20110;SDS011;10216;42.658;23.248;2022-08-19T04:28:06;8.20;;;7.40;;
20110;SDS011;10216;42.658;23.248;2022-08-19T04:30:51;15.03;;;8.47;;
20110;SDS011;10216;42.658;23.248;2022-08-19T04:33:19;25.97;;;8.67;;
20110;SDS011;10216;42.658;23.248;2022-08-19T04:35:48;6.70;;;6.10;;
20110;SDS011;10216;42.658;23.248;2022-08-19T04:38:16;6.07;;;5.57;;
20110;SDS011;10216;42.658;23.248;2022-08-19T04:40:44;6.93;;;6.33;;
20110;SDS011;10216;42.658;23.248;2022-08-19T04:43:30;8.70;;;6.60;;
20110;SDS011;10216;42.658;23.248;2022-08-19T04:45:57;7.10;;;6.47;;
20110;SDS011;10216;42.658;23.248;2022-08-19T04:48:23;8.40;;;6.80;;
20110;SDS011;10216;42.658;23.248;2022-08-19T04:50:52;7.20;;;6.60;;
20110;SDS011;10216;42.658;23.248;2022-08-19T04:53:22;7.37;;;6.67;;
20110;SDS011;10216;42.658;23.248;2022-08-19T04:55:50;8.00;;;7.23;;
20110;SDS011;10216;42.658;23.248;2022-08-19T04:58:16;7.80;;;7.00;;
20110;SDS011;10216;42.658;23.248;2022-08-19T05:00:42;9.03;;;7.10;;
20110;SDS011;10216;42.658;23.248;2022-08-19T05:03:08;7.63;;;6.93;;
20110;SDS011;10216;42.658;23.248;2022-08-19T05:05:38;11.30;;;7.77;;
20110;SDS011;10216;42.658;23.248;2022-08-19T05:08:06;8.93;;;8.03;;
20110;SDS011;10216;42.658;23.248;2022-08-19T05:10:36;8.83;;;8.00;;
20110;SDS011;10216;42.658;23.248;2022-08-19T05:13:03;9.27;;;7.80;;
20110;SDS011;10216;42.658;23.248;2022-08-19T05:15:29;13.30;;;8.63;;
20110;SDS011;10216;42.658;23.248;2022-08-19T05:17:56;9.70;;;7.90;;
20110;SDS011;10216;42.658;23.248;2022-08-19T05:20:40;7.70;;;7.07;;
20110;SDS011;10216;42.658;23.248;2022-08-19T05:23:24;10.10;;;8.10;;
20110;SDS011;10216;42.658;23.248;2022-08-19T05:25:50;9.87;;;7.07;;
20110;SDS011;10216;42.658;23.248;2022-08-19T05:28:16;6.80;;;6.20;;
20110;SDS011;10216;42.658;23.248;2022-08-19T05:30:42;7.70;;;6.80;;
20110;SDS011;10216;42.658;23.248;2022-08-19T05:33:09;8.90;;;7.37;;
20110;SDS011;10216;42.658;23.248;2022-08-19T05:35:37;7.57;;;6.67;;
20110;SDS011;10216;42.658;23.248;2022-08-19T05:38:06;9.43;;;6.50;;
20110;SDS011;10216;42.658;23.248;2022-08-19T05:40:37;8.93;;;6.67;;
20110;SDS011;10216;42.658;23.248;2022-08-19T05:43:04;8.33;;;7.37;;
20110;SDS011;10216;42.658;23.248;2022-08-19T05:45:31;8.07;;;6.50;;
20110;SDS011;10216;42.658;23.248;2022-08-19T05:47:56;9.90;;;7.10;;
20110;SDS011;10216;42.658;23.248;2022-08-19T05:50:23;8.80;;;7.07;;
20110;SDS011;10216;42.658;23.248;2022-08-19T05:52:50;9.30;;;6.43;;
20110;SDS011;10216;42.658;23.248;2022-08-19T05:55:16;8.20;;;7.40;;
20110;SDS011;10216;42.658;23.248;2022-08-19T05:57:41;12.03;;;6.90;;
20110;SDS011;10216;42.658;23.248;2022-08-19T06:00:07;9.43;;;6.67;;
20110;SDS011;10216;42.658;23.248;2022-08-19T06:02:35;9.77;;;7.37;;
20110;SDS011;10216;42.658;23.248;2022-08-19T06:05:02;11.00;;;8.47;;
20110;SDS011;10216;42.658;23.248;2022-08-19T06:07:34;13.30;;;8.93;;
20110;SDS011;10216;42.658;23.248;2022-08-19T06:10:01;14.57;;;9.13;;
20110;SDS011;10216;42.658;23.248;2022-08-19T06:12:28;12.83;;;8.30;;
20110;SDS011;10216;42.658;23.248;2022-08-19T06:14:58;20.07;;;8.10;;
20110;SDS011;10216;42.658;23.248;2022-08-19T06:17:24;10.47;;;8.33;;
20110;SDS011;10216;42.658;23.248;2022-08-19T06:19:50;15.30;;;9.07;;
20110;SDS011;10216;42.658;23.248;2022-08-19T06:22:16;14.80;;;9.07;;
20110;SDS011;10216;42.658;23.248;2022-08-19T06:24:41;11.40;;;8.60;;
20110;SDS011;10216;42.658;23.248;2022-08-19T06:27:07;11.03;;;8.67;;
20110;SDS011;10216;42.658;23.248;2022-08-19T06:29:33;12.03;;;9.07;;
20110;SDS011;10216;42.658;23.248;2022-08-19T06:32:01;11.17;;;8.90;;
20110;SDS011;10216;42.658;23.248;2022-08-19T06:34:28;10.60;;;8.33;;
20110;SDS011;10216;42.658;23.248;2022-08-19T06:36:56;9.57;;;8.20;;
20110;SDS011;10216;42.658;23.248;2022-08-19T06:39:27;14.90;;;9.47;;
20110;SDS011;10216;42.658;23.248;2022-08-19T06:41:56;15.60;;;9.40;;
20110;SDS011;10216;42.658;23.248;2022-08-19T06:44:25;17.37;;;9.33;;
20110;SDS011;10216;42.658;23.248;2022-08-19T06:46:53;16.17;;;9.47;;
20110;SDS011;10216;42.658;23.248;2022-08-19T06:49:19;13.43;;;9.53;;
20110;SDS011;10216;42.658;23.248;2022-08-19T06:51:46;10.97;;;9.13;;
20110;SDS011;10216;42.658;23.248;2022-08-19T06:54:13;14.00;;;9.80;;
20110;SDS011;10216;42.658;23.248;2022-08-19T06:56:39;12.87;;;10.23;;
20110;SDS011;10216;42.658;23.248;2022-08-19T06:59:08;15.87;;;9.47;;
20110;SDS011;10216;42.658;23.248;2022-08-19T07:01:36;15.70;;;9.50;;
20110;SDS011;10216;42.658;23.248;2022-08-19T07:04:04;14.67;;;9.47;;
20110;SDS011;10216;42.658;23.248;2022-08-19T07:06:31;10.87;;;9.27;;
20110;SDS011;10216;42.658;23.248;2022-08-19T07:08:57;10.73;;;8.20;;
20110;SDS011;10216;42.658;23.248;2022-08-19T07:11:23;14.37;;;7.40;;
20110;SDS011;10216;42.658;23.248;2022-08-19T07:13:49;12.73;;;7.93;;
20110;SDS011;10216;42.658;23.248;2022-08-19T07:16:16;10.27;;;7.97;;
20110;SDS011;10216;42.658;23.248;2022-08-19T07:18:44;10.77;;;7.68;;
20110;SDS011;10216;42.658;23.248;2022-08-19T07:21:15;10.68;;;7.28;;
20110;SDS011;10216;42.658;23.248;2022-08-19T07:23:43;8.65;;;7.03;;
20110;SDS011;10216;42.658;23.248;2022-08-19T07:26:15;11.57;;;7.43;;
20110;SDS011;10216;42.658;23.248;2022-08-19T07:29:06;12.10;;;7.47;;
20110;SDS011;10216;42.658;23.248;2022-08-19T07:31:32;9.25;;;7.13;;
20110;SDS011;10216;42.658;23.248;2022-08-19T07:34:02;12.18;;;6.95;;
20110;SDS011;10216;42.658;23.248;2022-08-19T07:36:32;14.13;;;8.02;;
20110;SDS011;10216;42.658;23.248;2022-08-19T07:39:00;9.35;;;7.28;;
20110;SDS011;10216;42.658;23.248;2022-08-19T07:41:30;12.05;;;7.65;;
20110;SDS011;10216;42.658;23.248;2022-08-19T07:43:56;10.52;;;8.13;;
20110;SDS011;10216;42.658;23.248;2022-08-19T07:46:25;11.48;;;8.43;;
20110;SDS011;10216;42.658;23.248;2022-08-19T07:48:51;14.50;;;7.25;;
20110;SDS011;10216;42.658;23.248;2022-08-19T07:51:19;11.52;;;7.45;;
20110;SDS011;10216;42.658;23.248;2022-08-19T07:53:46;8.38;;;7.22;;
20110;SDS011;10216;42.658;23.248;2022-08-19T07:56:14;9.90;;;7.03;;
20110;SDS011;10216;42.658;23.248;2022-08-19T07:58:42;6.95;;;6.20;;
20110;SDS011;10216;42.658;23.248;2022-08-19T08:01:14;9.73;;;6.82;;
20110;SDS011;10216;42.658;23.248;2022-08-19T08:03:43;12.30;;;6.45;;
20110;SDS011;10216;42.658;23.248;2022-08-19T08:06:28;8.40;;;6.85;;
20110;SDS011;10216;42.658;23.248;2022-08-19T08:09:12;9.02;;;6.28;;
20110;SDS011;10216;42.658;23.248;2022-08-19T08:11:48;7.18;;;6.32;;
20110;SDS011;10216;42.658;23.248;2022-08-19T08:14:19;7.45;;;5.63;;
20110;SDS011;10216;42.658;23.248;2022-08-19T08:16:47;8.18;;;5.90;;
20110;SDS011;10216;42.658;23.248;2022-08-19T08:19:16;6.97;;;5.75;;
20110;SDS011;10216;42.658;23.248;2022-08-19T08:21:43;9.25;;;5.65;;
20110;SDS011;10216;42.658;23.248;2022-08-19T08:24:09;9.75;;;5.45;;
20110;SDS011;10216;42.658;23.248;2022-08-19T08:26:35;8.50;;;5.22;;
20110;SDS011;10216;42.658;23.248;2022-08-19T08:29:01;7.07;;;5.32;;
20110;SDS011;10216;42.658;23.248;2022-08-19T08:31:26;5.75;;;4.47;;
20110;SDS011;10216;42.658;23.248;2022-08-19T08:33:52;5.45;;;4.53;;
20110;SDS011;10216;42.658;23.248;2022-08-19T08:36:17;4.72;;;4.20;;
20110;SDS011;10216;42.658;23.248;2022-08-19T08:38:43;4.03;;;3.72;;
20110;SDS011;10216;42.658;23.248;2022-08-19T08:41:21;8.75;;;4.32;;
20110;SDS011;10216;42.658;23.248;2022-08-19T08:43:59;6.10;;;4.18;;
20110;SDS011;10216;42.658;23.248;2022-08-19T08:54:40;6.03;;;4.43;;
20110;SDS011;10216;42.658;23.248;2022-08-19T08:57:11;5.10;;;4.25;;
20110;SDS011;10216;42.658;23.248;2022-08-19T08:59:40;6.10;;;4.43;;
20110;SDS011;10216;42.658;23.248;2022-08-19T09:02:08;4.93;;;4.10;;
20110;SDS011;10216;42.658;23.248;2022-08-19T09:04:35;5.43;;;4.00;;
20110;SDS011;10216;42.658;23.248;2022-08-19T09:09:43;5.72;;;4.05;;
20110;SDS011;10216;42.658;23.248;2022-08-19T09:17:11;3.78;;;3.55;;
20110;SDS011;10216;42.658;23.248;2022-08-19T09:22:20;5.07;;;3.33;;
20110;SDS011;10216;42.658;23.248;2022-08-19T09:24:49;4.50;;;3.75;;
20110;SDS011;10216;42.658;23.248;2022-08-19T09:27:17;5.13;;;2.83;;
20110;SDS011;10216;42.658;23.248;2022-08-19T09:29:43;3.45;;;3.15;;
20110;SDS011;10216;42.658;23.248;2022-08-19T09:32:11;3.22;;;2.92;;
20110;SDS011;10216;42.658;23.248;2022-08-19T09:34:36;4.90;;;3.15;;
20110;SDS011;10216;42.658;23.248;2022-08-19T09:37:02;3.47;;;3.10;;
20110;SDS011;10216;42.658;23.248;2022-08-19T09:39:28;3.83;;;3.53;;
20110;SDS011;10216;42.658;23.248;2022-08-19T09:41:55;7.07;;;3.75;;
20110;SDS011;10216;42.658;23.248;2022-08-19T09:44:21;3.63;;;3.33;;
20110;SDS011;10216;42.658;23.248;2022-08-19T09:46:46;8.93;;;3.67;;
20110;SDS011;10216;42.658;23.248;2022-08-19T09:49:12;5.65;;;3.20;;
20110;SDS011;10216;42.658;23.248;2022-08-19T09:51:37;5.50;;;3.08;;
20110;SDS011;10216;42.658;23.248;2022-08-19T09:54:03;3.70;;;3.17;;
20110;SDS011;10216;42.658;23.248;2022-08-19T09:56:29;3.47;;;3.17;;
20110;SDS011;10216;42.658;23.248;2022-08-19T09:58:57;5.78;;;3.08;;
20110;SDS011;10216;42.658;23.248;2022-08-19T10:01:25;3.42;;;2.88;;
20110;SDS011;10216;42.658;23.248;2022-08-19T10:03:53;4.60;;;3.20;;
20110;SDS011;10216;42.658;23.248;2022-08-19T10:06:22;4.68;;;3.50;;
20110;SDS011;10216;42.658;23.248;2022-08-19T10:08:49;5.22;;;3.05;;
20110;SDS011;10216;42.658;23.248;2022-08-19T10:11:16;3.30;;;3.00;;
20110;SDS011;10216;42.658;23.248;2022-08-19T10:13:44;4.82;;;3.10;;
20110;SDS011;10216;42.658;23.248;2022-08-19T10:16:14;5.05;;;2.80;;
20110;SDS011;10216;42.658;23.248;2022-08-19T10:18:44;7.18;;;3.35;;
20110;SDS011;10216;42.658;23.248;2022-08-19T10:21:11;3.03;;;2.72;;
20110;SDS011;10216;42.658;23.248;2022-08-19T10:23:39;3.85;;;2.70;;
20110;SDS011;10216;42.658;23.248;2022-08-19T10:26:12;7.93;;;2.78;;
20110;SDS011;10216;42.658;23.248;2022-08-19T10:28:39;3.50;;;3.05;;
20110;SDS011;10216;42.658;23.248;2022-08-19T10:31:12;3.65;;;2.83;;
20110;SDS011;10216;42.658;23.248;2022-08-19T10:33:40;4.50;;;3.20;;
20110;SDS011;10216;42.658;23.248;2022-08-19T10:36:10;3.97;;;2.63;;
20110;SDS011;10216;42.658;23.248;2022-08-19T10:38:42;4.63;;;3.22;;
20110;SDS011;10216;42.658;23.248;2022-08-19T10:41:13;6.00;;;3.38;;
20110;SDS011;10216;42.658;23.248;2022-08-19T10:43:41;4.07;;;3.55;;
20110;SDS011;10216;42.658;23.248;2022-08-19T10:46:08;4.13;;;3.75;;
20110;SDS011;10216;42.658;23.248;2022-08-19T10:48:35;4.28;;;3.30;;
20110;SDS011;10216;42.658;23.248;2022-08-19T10:51:01;4.68;;;3.30;;
20110;SDS011;10216;42.658;23.248;2022-08-19T10:53:46;4.78;;;3.38;;
20110;SDS011;10216;42.658;23.248;2022-08-19T10:56:12;5.95;;;3.45;;
20110;SDS011;10216;42.658;23.248;2022-08-19T10:58:56;3.83;;;3.35;;
20110;SDS011;10216;42.658;23.248;2022-08-19T11:01:22;4.93;;;3.50;;
20110;SDS011;10216;42.658;23.248;2022-08-19T11:03:49;3.65;;;3.22;;
20110;SDS011;10216;42.658;23.248;2022-08-19T11:06:14;5.22;;;3.47;;
20110;SDS011;10216;42.658;23.248;2022-08-19T11:08:40;4.15;;;3.58;;
20110;SDS011;10216;42.658;23.248;2022-08-19T11:11:07;4.60;;;3.70;;
20110;SDS011;10216;42.658;23.248;2022-08-19T11:13:33;4.15;;;3.40;;
20110;SDS011;10216;42.658;23.248;2022-08-19T11:16:12;3.90;;;3.50;;
20110;SDS011;10216;42.658;23.248;2022-08-19T11:18:43;5.25;;;4.28;;
20110;SDS011;10216;42.658;23.248;2022-08-19T11:21:12;5.15;;;4.65;;
20110;SDS011;10216;42.658;23.248;2022-08-19T11:23:46;3.78;;;3.47;;
20110;SDS011;10216;42.658;23.248;2022-08-19T11:26:14;6.65;;;4.50;;
20110;SDS011;10216;42.658;23.248;2022-08-19T11:28:40;4.00;;;3.60;;
20110;SDS011;10216;42.658;23.248;2022-08-19T11:31:12;4.80;;;3.70;;
20110;SDS011;10216;42.658;23.248;2022-08-19T11:33:40;4.05;;;3.35;;
20110;SDS011;10216;42.658;23.248;2022-08-19T11:36:05;3.72;;;3.30;;
20110;SDS011;10216;42.658;23.248;2022-08-19T11:38:32;6.50;;;3.67;;
20110;SDS011;10216;42.658;23.248;2022-08-19T11:41:00;3.55;;;3.08;;
20110;SDS011;10216;42.658;23.248;2022-08-19T11:43:27;3.60;;;3.30;;
20110;SDS011;10216;42.658;23.248;2022-08-19T11:45:53;5.10;;;3.15;;
20110;SDS011;10216;42.658;23.248;2022-08-19T11:48:20;4.03;;;3.20;;
20110;SDS011;10216;42.658;23.248;2022-08-19T11:50:47;4.38;;;3.20;;
20110;SDS011;10216;42.658;23.248;2022-08-19T11:53:21;4.60;;;3.60;;
20110;SDS011;10216;42.658;23.248;2022-08-19T11:55:47;4.82;;;3.35;;
20110;SDS011;10216;42.658;23.248;2022-08-19T11:58:14;3.95;;;3.25;;
20110;SDS011;10216;42.658;23.248;2022-08-19T12:00:41;3.83;;;3.50;;
20110;SDS011;10216;42.658;23.248;2022-08-19T12:03:09;4.55;;;3.75;;
20110;SDS011;10216;42.658;23.248;2022-08-19T12:05:36;5.00;;;3.10;;
20110;SDS011;10216;42.658;23.248;2022-08-19T12:08:02;4.00;;;3.20;;
20110;SDS011;10216;42.658;23.248;2022-08-19T12:10:28;4.45;;;4.05;;
20110;SDS011;10216;42.658;23.248;2022-08-19T12:12:54;4.15;;;3.50;;
20110;SDS011;10216;42.658;23.248;2022-08-19T12:15:19;4.30;;;3.00;;
20110;SDS011;10216;42.658;23.248;2022-08-19T12:17:44;5.30;;;3.40;;
20110;SDS011;10216;42.658;23.248;2022-08-19T12:20:10;8.43;;;3.75;;
20110;SDS011;10216;42.658;23.248;2022-08-19T12:22:38;4.30;;;3.50;;
20110;SDS011;10216;42.658;23.248;2022-08-19T12:25:06;8.05;;;3.17;;
20110;SDS011;10216;42.658;23.248;2022-08-19T12:27:34;3.53;;;3.20;;
20110;SDS011;10216;42.658;23.248;2022-08-19T12:30:05;4.28;;;3.20;;
20110;SDS011;10216;42.658;23.248;2022-08-19T12:32:32;5.00;;;2.90;;
20110;SDS011;10216;42.658;23.248;2022-08-19T12:34:59;3.33;;;3.03;;
20110;SDS011;10216;42.658;23.248;2022-08-19T12:37:24;4.40;;;3.10;;
20110;SDS011;10216;42.658;23.248;2022-08-19T12:39:50;3.40;;;3.10;;
20110;SDS011;10216;42.658;23.248;2022-08-19T12:42:18;3.38;;;3.08;;
20110;SDS011;10216;42.658;23.248;2022-08-19T12:44:43;5.38;;;2.90;;
20110;SDS011;10216;42.658;23.248;2022-08-19T12:47:11;2.90;;;2.70;;
20110;SDS011;10216;42.658;23.248;2022-08-19T12:49:39;5.40;;;3.05;;
20110;SDS011;10216;42.658;23.248;2022-08-19T12:52:06;4.03;;;3.00;;
20110;SDS011;10216;42.658;23.248;2022-08-19T12:54:33;3.90;;;2.95;;
20110;SDS011;10216;42.658;23.248;2022-08-19T12:56:59;3.80;;;3.20;;
20110;SDS011;10216;42.658;23.248;2022-08-19T12:59:25;3.03;;;2.80;;
20110;SDS011;10216;42.658;23.248;2022-08-19T13:01:51;4.30;;;3.38;;
20110;SDS011;10216;42.658;23.248;2022-08-19T13:04:17;3.55;;;2.67;;
20110;SDS011;10216;42.658;23.248;2022-08-19T13:06:43;3.42;;;2.83;;
20110;SDS011;10216;42.658;23.248;2022-08-19T13:09:08;4.20;;;3.72;;
20110;SDS011;10216;42.658;23.248;2022-08-19T13:11:34;4.50;;;3.28;;
20110;SDS011;10216;42.658;23.248;2022-08-19T13:14:01;3.88;;;2.70;;
20110;SDS011;10216;42.658;23.248;2022-08-19T13:16:28;3.53;;;3.00;;
20110;SDS011;10216;42.658;23.248;2022-08-19T13:18:55;3.28;;;2.90;;
20110;SDS011;10216;42.658;23.248;2022-08-19T13:21:24;3.30;;;2.88;;
20110;SDS011;10216;42.658;23.248;2022-08-19T13:23:52;3.72;;;3.20;;
20110;SDS011;10216;42.658;23.248;2022-08-19T13:26:18;3.80;;;2.90;;
20110;SDS011;10216;42.658;23.248;2022-08-19T13:28:44;5.53;;;3.53;;
20110;SDS011;10216;42.658;23.248;2022-08-19T13:31:30;3.72;;;3.03;;
20110;SDS011;10216;42.658;23.248;2022-08-19T13:34:16;3.00;;;2.80;;
20110;SDS011;10216;42.658;23.248;2022-08-19T13:36:44;3.97;;;3.20;;
20110;SDS011;10216;42.658;23.248;2022-08-19T13:39:10;3.78;;;2.80;;
20110;SDS011;10216;42.658;23.248;2022-08-19T13:41:36;3.08;;;2.75;;
20110;SDS011;10216;42.658;23.248;2022-08-19T13:44:02;3.30;;;2.97;;
20110;SDS011;10216;42.658;23.248;2022-08-19T13:46:29;3.60;;;3.10;;
20110;SDS011;10216;42.658;23.248;2022-08-19T13:48:55;4.65;;;3.00;;
20110;SDS011;10216;42.658;23.248;2022-08-19T13:51:21;4.40;;;3.17;;
20110;SDS011;10216;42.658;23.248;2022-08-19T13:53:47;7.43;;;3.30;;
20110;SDS011;10216;42.658;23.248;2022-08-19T13:56:13;4.30;;;3.30;;
20110;SDS011;10216;42.658;23.248;2022-08-19T13:58:41;5.00;;;3.03;;
20110;SDS011;10216;42.658;23.248;2022-08-19T14:01:08;4.97;;;3.20;;
20110;SDS011;10216;42.658;23.248;2022-08-19T14:03:35;4.20;;;3.25;;
20110;SDS011;10216;42.658;23.248;2022-08-19T14:06:05;4.80;;;3.05;;
20110;SDS011;10216;42.658;23.248;2022-08-19T14:08:31;5.47;;;4.97;;
20110;SDS011;10216;42.658;23.248;2022-08-19T14:10:57;6.53;;;3.83;;
20110;SDS011;10216;42.658;23.248;2022-08-19T14:13:23;5.38;;;3.60;;
20110;SDS011;10216;42.658;23.248;2022-08-19T14:15:49;9.75;;;5.60;;
20110;SDS011;10216;42.658;23.248;2022-08-19T14:18:15;7.10;;;4.03;;
20110;SDS011;10216;42.658;23.248;2022-08-19T14:20:42;7.40;;;3.63;;
20110;SDS011;10216;42.658;23.248;2022-08-19T14:23:08;3.92;;;3.50;;
20110;SDS011;10216;42.658;23.248;2022-08-19T14:25:33;5.07;;;3.72;;
20110;SDS011;10216;42.658;23.248;2022-08-19T14:27:59;5.88;;;3.92;;
20110;SDS011;10216;42.658;23.248;2022-08-19T14:30:26;5.88;;;3.80;;
20110;SDS011;10216;42.658;23.248;2022-08-19T14:32:55;7.53;;;4.05;;
20110;SDS011;10216;42.658;23.248;2022-08-19T14:35:21;4.85;;;3.90;;
20110;SDS011;10216;42.658;23.248;2022-08-19T14:37:48;14.30;;;4.57;;
20110;SDS011;10216;42.658;23.248;2022-08-19T14:40:16;6.78;;;3.80;;
20110;SDS011;10216;42.658;23.248;2022-08-19T14:42:43;4.85;;;4.05;;
20110;SDS011;10216;42.658;23.248;2022-08-19T14:45:10;3.90;;;3.58;;
20110;SDS011;10216;42.658;23.248;2022-08-19T14:47:36;5.60;;;3.83;;
20110;SDS011;10216;42.658;23.248;2022-08-19T14:50:03;4.75;;;3.80;;
20110;SDS011;10216;42.658;23.248;2022-08-19T14:52:33;6.93;;;3.88;;
20110;SDS011;10216;42.658;23.248;2022-08-19T14:54:59;5.57;;;4.05;;
20110;SDS011;10216;42.658;23.248;2022-08-19T14:57:25;5.22;;;4.00;;